createdAt,value
2023-11-19T00:00:59.403Z,-3.25
2023-11-19T00:01:59.556Z,-3.19
2023-11-19T00:03:00.077Z,-3.2
2023-11-19T00:04:00.460Z,-3.22
2023-11-19T00:05:01.261Z,-3.22
2023-11-19T00:06:01.122Z,-3.24
2023-11-19T00:07:01.665Z,-3.22
2023-11-19T00:08:02.045Z,-3.22
2023-11-19T00:09:02.524Z,-3.25
2023-11-19T00:10:03.038Z,-3.22
2023-11-19T00:11:03.246Z,-3.28
2023-11-19T00:12:07.047Z,-3.36
2023-11-19T00:13:04.926Z,-3.34
2023-11-19T00:14:05.422Z,-3.33
2023-11-19T00:15:05.849Z,-3.34
2023-11-19T00:16:06.817Z,-3.33
2023-11-19T00:17:05.863Z,-3.31
2023-11-19T00:18:06.325Z,-3.3
2023-11-19T00:19:06.666Z,-3.28
2023-11-19T00:20:08.952Z,-3.23
2023-11-19T00:21:08.020Z,-3.24
2023-11-19T00:22:08.589Z,-3.25
2023-11-19T00:23:08.988Z,-3.24
2023-11-19T00:24:09.886Z,-3.25
2023-11-19T00:25:10.343Z,-3.24
2023-11-19T00:26:10.036Z,-3.23
2023-11-19T00:27:10.225Z,-3.21
2023-11-19T00:28:10.982Z,-3.24
2023-11-19T00:29:11.267Z,-3.27
2023-11-19T00:30:12.184Z,-3.33
2023-11-19T00:31:12.119Z,-3.34
2023-11-19T00:32:12.428Z,-3.3
2023-11-19T00:33:12.838Z,-3.24
2023-11-19T00:34:13.150Z,-3.27
2023-11-19T00:35:13.451Z,-3.36
2023-11-19T00:36:13.809Z,-3.35
2023-11-19T00:37:14.837Z,-3.35
2023-11-19T00:38:14.803Z,-3.29
2023-11-19T00:39:15.110Z,-3.24
2023-11-19T00:40:15.978Z,-3.19
2023-11-19T00:41:16.596Z,-3.17
2023-11-19T00:42:16.132Z,-3.2
2023-11-19T00:43:16.721Z,-3.25
2023-11-19T00:44:16.886Z,-3.24
2023-11-19T00:45:17.418Z,-3.26
2023-11-19T00:46:17.845Z,-3.25
2023-11-19T00:47:18.367Z,-3.22
2023-11-19T00:48:18.661Z,-3.18
2023-11-19T00:49:18.909Z,-3.22
2023-11-19T00:50:19.607Z,-3.24
2023-11-19T00:51:19.698Z,-3.2
2023-11-19T00:52:20.350Z,-3.2
2023-11-19T00:53:20.735Z,-3.22
2023-11-19T00:54:21.250Z,-3.22
2023-11-19T00:55:21.270Z,-3.22
2023-11-19T00:56:21.584Z,-3.25
2023-11-19T00:57:22.814Z,-3.27
2023-11-19T00:58:23.192Z,-3.25
2023-11-19T00:59:23.447Z,-3.15
2023-11-19T01:00:23.981Z,-3.15
2023-11-19T01:01:25.195Z,-3.19
2023-11-19T01:02:24.700Z,-3.19
2023-11-19T01:03:25.167Z,-3.15
2023-11-19T01:04:25.617Z,-3.12
2023-11-19T01:05:26.402Z,-3.18
2023-11-19T01:06:32.599Z,-3.21
2023-11-19T01:07:29.863Z,-3.18
2023-11-19T01:08:30.293Z,-3.2
2023-11-19T01:09:31.089Z,-3.24
2023-11-19T01:10:31.103Z,-3.23
2023-11-19T01:11:31.407Z,-3.2
2023-11-19T01:12:32.014Z,-3.21
2023-11-19T01:13:32.426Z,-3.21
2023-11-19T01:14:32.403Z,-3.22
2023-11-19T01:15:33.606Z,-3.23
2023-11-19T01:16:33.264Z,-3.24
2023-11-19T01:17:33.636Z,-3.18
2023-11-19T01:18:34.118Z,-3.18
2023-11-19T01:19:34.657Z,-3.16
2023-11-19T01:20:34.838Z,-3.17
2023-11-19T01:21:35.326Z,-3.23
2023-11-19T01:22:35.618Z,-3.28
2023-11-19T01:23:36.829Z,-3.24
2023-11-19T01:24:36.511Z,-3.19
2023-11-19T01:25:36.689Z,-3.21
2023-11-19T01:26:37.382Z,-3.19
2023-11-19T01:27:37.563Z,-3.18
2023-11-19T01:28:38.276Z,-3.19
2023-11-19T01:29:38.354Z,-3.2
2023-11-19T01:30:38.602Z,-3.22
2023-11-19T01:31:39.019Z,-3.2
2023-11-19T01:32:40.191Z,-3.2
2023-11-19T01:33:40.292Z,-3.21
2023-11-19T01:34:40.304Z,-3.21
2023-11-19T01:35:40.693Z,-3.27
2023-11-19T01:36:40.996Z,-3.19
2023-11-19T01:37:41.241Z,-3.18
2023-11-19T01:38:41.843Z,-3.18
2023-11-19T01:39:45.218Z,-3.18
2023-11-19T01:40:42.649Z,-3.18
2023-11-19T01:41:42.868Z,-3.22
2023-11-19T01:42:43.294Z,-3.19
2023-11-19T01:43:43.693Z,-3.19
2023-11-19T01:45:48.226Z,-3.22
2023-11-19T01:46:49.172Z,-3.2
2023-11-19T01:47:48.665Z,-3.22
2023-11-19T01:48:49.061Z,-3.2
2023-11-19T01:49:49.494Z,-3.21
2023-11-19T01:51:54.625Z,-3.2
2023-11-19T01:52:55.648Z,-3.18
2023-11-19T01:53:56.253Z,-3.16
2023-11-19T01:54:56.185Z,-3.21
2023-11-19T01:55:56.327Z,-3.25
2023-11-19T01:56:57.933Z,-3.23
2023-11-19T01:57:59.363Z,-3.25
2023-11-19T01:58:57.921Z,-3.27
2023-11-19T01:59:57.313Z,-3.25
2023-11-19T02:00:58.812Z,-3.26
2023-11-19T02:02:01.731Z,-3.24
2023-11-19T02:02:59.700Z,-3.24
2023-11-19T02:04:00.268Z,-3.24
2023-11-19T02:05:00.499Z,-3.25
2023-11-19T02:06:01.458Z,-3.26
2023-11-19T02:07:01.304Z,-3.3
2023-11-19T02:08:01.364Z,-3.3
2023-11-19T02:09:01.821Z,-3.31
2023-11-19T02:10:02.165Z,-3.32
2023-11-19T02:11:02.530Z,-3.23
2023-11-19T02:12:02.940Z,-3.21
2023-11-19T02:14:04.085Z,-3.21
2023-11-19T02:15:07.763Z,-3.26
2023-11-19T02:16:05.787Z,-3.3
2023-11-19T02:17:06.362Z,-3.28
2023-11-19T02:19:10.979Z,-3.22
2023-11-19T02:20:11.707Z,-3.26
2023-11-19T02:21:11.507Z,-3.3
2023-11-19T02:22:12.026Z,-3.32
2023-11-19T02:23:14.579Z,-3.27
2023-11-19T02:24:15.297Z,-3.28
2023-11-19T02:25:21.014Z,-3.29
2023-11-19T02:28:18.617Z,-3.26
2023-11-19T02:29:18.823Z,-3.25
2023-11-19T02:30:18.916Z,-3.21
2023-11-19T02:31:19.346Z,-3.2
2023-11-19T02:32:20.386Z,-3.2
2023-11-19T02:33:20.275Z,-3.22
2023-11-19T02:34:20.303Z,-3.24
2023-11-19T02:35:20.694Z,-3.26
2023-11-19T02:36:21.020Z,-3.22
2023-11-19T02:37:21.181Z,-3.21
2023-11-19T02:38:21.739Z,-3.19
2023-11-19T02:39:22.049Z,-3.19
2023-11-19T02:40:22.191Z,-3.22
2023-11-19T02:41:22.591Z,-3.25
2023-11-19T02:42:22.896Z,-3.38
2023-11-19T02:43:23.320Z,-3.37
2023-11-19T02:44:23.929Z,-3.37
2023-11-19T02:45:24.660Z,-3.34
2023-11-19T02:46:24.401Z,-3.33
2023-11-19T02:47:24.913Z,-3.3
2023-11-19T02:48:25.085Z,-3.32
2023-11-19T02:49:25.508Z,-3.32
2023-11-19T02:50:26.840Z,-3.26
2023-11-19T02:51:26.207Z,-3.29
2023-11-19T02:52:26.645Z,-3.28
2023-11-19T02:53:26.795Z,-3.27
2023-11-19T02:54:27.279Z,-3.24
2023-11-19T02:55:27.707Z,-3.22
2023-11-19T02:56:28.016Z,-3.23
2023-11-19T02:57:32.423Z,-3.25
2023-11-19T02:58:29.890Z,-3.27
2023-11-19T02:59:30.281Z,-3.24
2023-11-19T03:00:30.598Z,-3.21
2023-11-19T03:01:31.967Z,-3.28
2023-11-19T03:02:31.354Z,-3.25
2023-11-19T03:03:31.581Z,-3.27
2023-11-19T03:04:31.875Z,-3.28
2023-11-19T03:05:32.374Z,-3.26
2023-11-19T03:06:32.783Z,-3.25
2023-11-19T03:07:32.682Z,-3.25
2023-11-19T03:08:33.972Z,-3.22
2023-11-19T03:09:33.523Z,-3.23
2023-11-19T03:10:34.098Z,-3.26
2023-11-19T03:11:34.343Z,-3.28
2023-11-19T03:12:34.452Z,-3.29
2023-11-19T03:13:34.979Z,-3.27
2023-11-19T03:14:35.922Z,-3.32
2023-11-19T03:15:35.817Z,-3.31
2023-11-19T03:16:36.111Z,-3.28
2023-11-19T03:17:45.728Z,-3.27
2023-11-19T03:18:38.183Z,-3.29
2023-11-19T03:19:38.563Z,-3.26
2023-11-19T03:20:38.939Z,-3.25
2023-11-19T03:21:39.185Z,-3.26
2023-11-19T03:22:39.452Z,-3.27
2023-11-19T03:23:39.792Z,-3.23
2023-11-19T03:24:40.277Z,-3.23
2023-11-19T03:25:40.784Z,-3.23
2023-11-19T03:26:41.061Z,-3.27
2023-11-19T03:27:41.516Z,-3.28
2023-11-19T03:28:41.652Z,-3.27
2023-11-19T03:29:42.041Z,-3.26
2023-11-19T03:30:42.266Z,-3.25
2023-11-19T03:31:45.695Z,-3.31
2023-11-19T03:32:43.211Z,-3.28
2023-11-19T03:33:43.628Z,-3.24
2023-11-19T03:34:43.905Z,-3.28
2023-11-19T03:35:44.336Z,-3.29
2023-11-19T03:36:44.443Z,-3.28
2023-11-19T03:37:44.866Z,-3.29
2023-11-19T03:38:45.076Z,-3.32
2023-11-19T03:39:45.530Z,-3.34
2023-11-19T03:40:45.795Z,-3.33
2023-11-19T03:41:48.885Z,-3.31
2023-11-19T03:42:48.984Z,-3.3
2023-11-19T03:43:46.690Z,-3.28
2023-11-19T03:44:47.134Z,-3.32
2023-11-19T03:45:47.830Z,-3.29
2023-11-19T03:46:48.426Z,-3.3
2023-11-19T03:47:48.015Z,-3.33
2023-11-19T03:48:49.249Z,-3.34
2023-11-19T03:49:52.520Z,-3.34
2023-11-19T03:50:49.975Z,-3.33
2023-11-19T03:51:50.129Z,-3.34
2023-11-19T03:52:50.881Z,-3.38
2023-11-19T03:53:50.867Z,-3.34
2023-11-19T03:54:51.388Z,-3.26
2023-11-19T03:55:51.748Z,-3.27
2023-11-19T03:56:52.061Z,-3.28
2023-11-19T03:57:52.583Z,-3.33
2023-11-19T03:58:52.882Z,-3.37
2023-11-19T03:59:53.236Z,-3.38
2023-11-19T04:00:53.543Z,-3.37
2023-11-19T04:01:54.003Z,-3.37
2023-11-19T04:02:54.166Z,-3.32
2023-11-19T04:03:54.633Z,-3.31
2023-11-19T04:04:55.451Z,-3.32
2023-11-19T04:05:55.196Z,-3.33
2023-11-19T04:06:56.337Z,-3.32
2023-11-19T04:07:55.902Z,-3.36
2023-11-19T04:08:56.239Z,-3.36
2023-11-19T04:09:56.557Z,-3.33
2023-11-19T04:10:57.065Z,-3.35
2023-11-19T04:11:58.403Z,-3.37
2023-11-19T04:12:57.830Z,-3.4
2023-11-19T04:13:58.291Z,-3.39
2023-11-19T04:15:02.256Z,-3.42
2023-11-19T04:16:00.428Z,-3.41
2023-11-19T04:17:00.334Z,-3.38
2023-11-19T04:18:00.725Z,-3.38
2023-11-19T04:19:01.164Z,-3.39
2023-11-19T04:20:01.572Z,-3.44
2023-11-19T04:21:01.939Z,-3.44
2023-11-19T04:22:02.400Z,-3.43
2023-11-19T04:23:02.720Z,-3.4
2023-11-19T04:24:03.086Z,-3.41
2023-11-19T04:25:04.258Z,-3.44
2023-11-19T04:27:05.949Z,-3.38
2023-11-19T04:28:05.973Z,-3.39
2023-11-19T04:29:06.398Z,-3.41
2023-11-19T04:30:07.856Z,-3.38
2023-11-19T04:31:07.805Z,-3.39
2023-11-19T04:32:07.760Z,-3.38
2023-11-19T04:33:07.858Z,-3.38
2023-11-19T04:34:08.404Z,-3.38
2023-11-19T04:35:09.566Z,-3.39
2023-11-19T04:36:10.142Z,-3.42
2023-11-19T04:38:09.805Z,-3.38
2023-11-19T04:39:10.382Z,-3.4
2023-11-19T04:40:11.627Z,-3.37
2023-11-19T04:41:10.985Z,-3.39
2023-11-19T04:42:11.305Z,-3.4
2023-11-19T04:43:11.762Z,-3.38
2023-11-19T04:44:12.181Z,-3.38
2023-11-19T04:45:12.972Z,-3.39
2023-11-19T04:46:13.260Z,-3.39
2023-11-19T04:47:13.671Z,-3.4
2023-11-19T04:48:13.800Z,-3.38
2023-11-19T04:49:15.071Z,-3.37
2023-11-19T04:50:14.765Z,-3.35
2023-11-19T04:51:15.164Z,-3.34
2023-11-19T04:52:15.538Z,-3.38
2023-11-19T04:53:15.976Z,-3.44
2023-11-19T04:54:16.190Z,-3.42
2023-11-19T04:55:17.015Z,-3.45
2023-11-19T04:56:16.914Z,-3.46
2023-11-19T04:57:18.267Z,-3.44
2023-11-19T04:58:17.801Z,-3.43
2023-11-19T04:59:18.015Z,-3.4
2023-11-19T05:00:20.132Z,-3.43
2023-11-19T05:01:19.036Z,-3.44
2023-11-19T05:02:19.326Z,-3.44
2023-11-19T05:03:19.875Z,-3.42
2023-11-19T05:04:20.648Z,-3.44
2023-11-19T05:05:20.905Z,-3.47
2023-11-19T05:06:21.002Z,-3.46
2023-11-19T05:07:21.658Z,-3.51
2023-11-19T05:08:21.743Z,-3.45
2023-11-19T05:09:22.297Z,-3.44
2023-11-19T05:10:22.625Z,-3.44
2023-11-19T05:11:23.423Z,-3.4
2023-11-19T05:12:23.287Z,-3.36
2023-11-19T05:13:23.777Z,-3.36
2023-11-19T05:14:23.997Z,-3.4
2023-11-19T05:15:24.462Z,-3.41
2023-11-19T05:16:25.170Z,-3.4
2023-11-19T05:17:25.398Z,-3.41
2023-11-19T05:18:25.366Z,-3.36
2023-11-19T05:19:25.921Z,-3.36
2023-11-19T05:20:26.875Z,-3.34
2023-11-19T05:21:27.432Z,-3.37
2023-11-19T05:22:27.556Z,-3.41
2023-11-19T05:23:27.907Z,-3.44
2023-11-19T05:24:28.296Z,-3.4
2023-11-19T05:25:29.058Z,-3.46
2023-11-19T05:26:29.210Z,-3.48
2023-11-19T05:27:29.422Z,-3.45
2023-11-19T05:28:29.774Z,-3.43
2023-11-19T05:29:29.946Z,-3.42
2023-11-19T05:30:30.357Z,-3.37
2023-11-19T05:31:32.312Z,-3.39
2023-11-19T05:32:31.236Z,-3.41
2023-11-19T05:33:31.654Z,-3.44
2023-11-19T05:34:32.172Z,-3.44
2023-11-19T05:35:32.241Z,-3.45
2023-11-19T05:36:32.800Z,-3.44
2023-11-19T05:37:33.098Z,-3.44
2023-11-19T05:38:33.603Z,-3.45
2023-11-19T05:39:34.316Z,-3.44
2023-11-19T05:40:34.490Z,-3.45
2023-11-19T05:41:34.831Z,-3.46
2023-11-19T05:42:35.049Z,-3.43
2023-11-19T05:43:35.719Z,-3.42
2023-11-19T05:44:38.309Z,-3.39
2023-11-19T05:45:37.120Z,-3.36
2023-11-19T05:46:37.765Z,-3.38
2023-11-19T05:47:38.029Z,-3.41
2023-11-19T05:48:38.285Z,-3.41
2023-11-19T05:49:38.887Z,-3.41
2023-11-19T05:50:39.342Z,-3.43
2023-11-19T05:51:40.275Z,-3.42
2023-11-19T05:52:40.139Z,-3.43
2023-11-19T05:53:40.454Z,-3.5
2023-11-19T05:54:40.866Z,-3.49
2023-11-19T05:55:41.393Z,-3.48
2023-11-19T05:56:41.720Z,-3.4
2023-11-19T05:58:42.517Z,-3.4
2023-11-19T05:59:42.633Z,-3.41
2023-11-19T06:00:43.191Z,-3.42
2023-11-19T06:01:43.582Z,-3.43
2023-11-19T06:02:43.810Z,-3.45
2023-11-19T06:03:44.115Z,-3.39
2023-11-19T06:04:44.538Z,-3.38
2023-11-19T06:05:48.620Z,-3.41
2023-11-19T06:06:46.149Z,-3.38
2023-11-19T06:07:46.586Z,-3.38
2023-11-19T06:08:46.839Z,-3.37
2023-11-19T06:09:47.319Z,-3.34
2023-11-19T06:10:48.063Z,-3.33
2023-11-19T06:11:48.086Z,-3.33
2023-11-19T06:12:48.386Z,-3.31
2023-11-19T06:13:49.147Z,-3.37
2023-11-19T06:14:49.297Z,-3.41
2023-11-19T06:15:49.711Z,-3.4
2023-11-19T06:16:50.336Z,-3.36
2023-11-19T06:17:50.589Z,-3.33
2023-11-19T06:18:50.990Z,-3.36
2023-11-19T06:19:51.327Z,-3.35
2023-11-19T06:20:51.518Z,-3.39
2023-11-19T06:21:52.191Z,-3.34
2023-11-19T06:22:52.519Z,-3.32
2023-11-19T06:23:52.718Z,-3.33
2023-11-19T06:24:53.467Z,-3.32
2023-11-19T06:25:53.682Z,-3.29
2023-11-19T06:26:53.989Z,-3.28
2023-11-19T06:27:54.284Z,-3.31
2023-11-19T06:28:54.610Z,-3.31
2023-11-19T06:29:55.024Z,-3.31
2023-11-19T06:30:55.429Z,-3.33
2023-11-19T06:31:55.800Z,-3.29
2023-11-19T06:32:56.170Z,-3.26
2023-11-19T06:33:56.698Z,-3.24
2023-11-19T06:34:57.399Z,-3.26
2023-11-19T06:35:57.532Z,-3.27
2023-11-19T06:36:58.056Z,-3.27
2023-11-19T06:37:58.348Z,-3.25
2023-11-19T06:38:58.766Z,-3.23
2023-11-19T06:39:59.296Z,-3.22
2023-11-19T06:40:59.591Z,-3.28
2023-11-19T06:42:00.045Z,-3.29
2023-11-19T06:43:00.994Z,-3.27
2023-11-19T06:44:00.990Z,-3.27
2023-11-19T06:45:01.204Z,-3.25
2023-11-19T06:46:01.691Z,-3.26
2023-11-19T06:47:02.171Z,-3.23
2023-11-19T06:48:02.948Z,-3.22
2023-11-19T06:49:02.858Z,-3.23
2023-11-19T06:50:03.565Z,-3.24
2023-11-19T06:51:06.464Z,-3.23
2023-11-19T06:52:04.712Z,-3.25
2023-11-19T06:53:04.591Z,-3.21
2023-11-19T06:54:05.018Z,-3.21
2023-11-19T06:55:09.340Z,-3.24
2023-11-19T06:56:18.438Z,-3.26
2023-11-19T06:57:10.866Z,-3.21
2023-11-19T06:58:11.077Z,-3.2
2023-11-19T06:59:11.455Z,-3.15
2023-11-19T07:00:13.001Z,-3.16
2023-11-19T07:01:12.266Z,-3.17
2023-11-19T07:02:12.804Z,-3.19
2023-11-19T07:03:12.895Z,-3.19
2023-11-19T07:04:13.496Z,-3.18
2023-11-19T07:05:13.593Z,-3.19
2023-11-19T07:06:14.336Z,-3.17
2023-11-19T07:07:14.609Z,-3.19
2023-11-19T07:08:15.576Z,-3.22
2023-11-19T07:09:15.288Z,-3.13
2023-11-19T07:10:15.678Z,-3.1
2023-11-19T07:11:16.817Z,-3.12
2023-11-19T07:12:16.444Z,-3.14
2023-11-19T07:13:16.930Z,-3.12
2023-11-19T07:14:17.415Z,-3.08
2023-11-19T07:15:18.042Z,-3.06
2023-11-19T07:16:18.075Z,-3.08
2023-11-19T07:17:19.022Z,-3.11
2023-11-19T07:18:18.938Z,-3.14
2023-11-19T07:19:19.405Z,-3.1
2023-11-19T07:20:19.748Z,-3.12
2023-11-19T07:21:19.938Z,-3.11
2023-11-19T07:22:20.451Z,-3.08
2023-11-19T07:23:20.857Z,-3.07
2023-11-19T07:24:21.905Z,-3.02
2023-11-19T07:25:21.425Z,-3.03
2023-11-19T07:26:22.355Z,-2.99
2023-11-19T07:27:22.337Z,-2.95
2023-11-19T07:28:22.750Z,-3.02
2023-11-19T07:30:23.775Z,-3
2023-11-19T07:31:24.727Z,-2.96
2023-11-19T07:32:24.360Z,-2.97
2023-11-19T07:33:24.783Z,-2.96
2023-11-19T07:34:26.131Z,-2.88
2023-11-19T07:35:25.386Z,-2.88
2023-11-19T07:36:25.660Z,-2.86
2023-11-19T07:37:26.051Z,-2.86
2023-11-19T07:38:26.359Z,-2.88
2023-11-19T07:39:26.704Z,-2.89
2023-11-19T07:40:28.422Z,-2.89
2023-11-19T07:41:27.409Z,-2.94
2023-11-19T07:42:27.695Z,-2.91
2023-11-19T07:43:28.375Z,-2.97
2023-11-19T07:44:28.424Z,-2.94
2023-11-19T07:45:28.809Z,-2.92
2023-11-19T07:46:29.142Z,-2.85
2023-11-19T07:47:29.503Z,-2.81
2023-11-19T07:48:29.751Z,-2.86
2023-11-19T07:49:30.069Z,-2.81
2023-11-19T07:50:30.519Z,-2.81
2023-11-19T07:51:30.879Z,-2.8
2023-11-19T07:52:31.159Z,-2.8
2023-11-19T07:53:31.539Z,-2.78
2023-11-19T07:54:31.930Z,-2.77
2023-11-19T07:55:33.542Z,-2.78
2023-11-19T07:56:34.548Z,-2.76
2023-11-19T07:57:32.993Z,-2.73
2023-11-19T07:58:33.416Z,-2.8
2023-11-19T07:59:33.620Z,-2.73
2023-11-19T08:00:33.848Z,-2.66
2023-11-19T08:01:34.359Z,-2.68
2023-11-19T08:02:35.009Z,-2.65
2023-11-19T08:03:35.359Z,-2.69
2023-11-19T08:04:35.479Z,-2.7
2023-11-19T08:05:35.632Z,-2.73
2023-11-19T08:06:36.435Z,-2.7
2023-11-19T08:07:36.280Z,-2.71
2023-11-19T08:08:36.953Z,-2.75
2023-11-19T08:09:37.046Z,-2.74
2023-11-19T08:10:37.273Z,-2.7
2023-11-19T08:11:37.552Z,-2.66
2023-11-19T08:12:38.321Z,-2.72
2023-11-19T08:13:38.157Z,-2.71
2023-11-19T08:14:38.739Z,-2.65
2023-11-19T08:15:38.829Z,-2.61
2023-11-19T08:16:41.074Z,-2.62
2023-11-19T08:17:40.499Z,-2.59
2023-11-19T08:18:42.347Z,-2.59
2023-11-19T08:19:40.400Z,-2.54
2023-11-19T08:20:40.942Z,-2.56
2023-11-19T08:21:40.921Z,-2.53
2023-11-19T08:22:41.272Z,-2.57
2023-11-19T08:23:41.575Z,-2.61
2023-11-19T08:24:41.972Z,-2.58
2023-11-19T08:25:42.179Z,-2.58
2023-11-19T08:26:42.510Z,-2.54
2023-11-19T08:27:42.913Z,-2.52
2023-11-19T08:28:43.071Z,-2.49
2023-11-19T08:29:43.654Z,-2.48
2023-11-19T08:30:43.781Z,-2.45
2023-11-19T08:31:44.279Z,-2.44
2023-11-19T08:32:44.613Z,-2.43
2023-11-19T08:33:44.779Z,-2.4
2023-11-19T08:34:45.061Z,-2.42
2023-11-19T08:35:45.393Z,-2.37
2023-11-19T08:36:45.676Z,-2.33
2023-11-19T08:37:46.661Z,-2.32
2023-11-19T08:38:46.498Z,-2.36
2023-11-19T08:39:46.672Z,-2.38
2023-11-19T08:40:47.092Z,-2.4
2023-11-19T08:41:47.396Z,-2.37
2023-11-19T08:42:47.774Z,-2.35
2023-11-19T08:43:48.158Z,-2.33
2023-11-19T08:44:51.559Z,-2.33
2023-11-19T08:45:49.189Z,-2.34
2023-11-19T08:46:50.308Z,-2.35
2023-11-19T08:47:49.736Z,-2.34
2023-11-19T08:48:49.895Z,-2.28
2023-11-19T08:50:53.737Z,-2.28
2023-11-19T08:51:54.193Z,-2.3
2023-11-19T08:52:54.448Z,-2.34
2023-11-19T08:53:54.741Z,-2.26
2023-11-19T08:54:55.104Z,-2.23
2023-11-19T08:55:55.495Z,-2.22
2023-11-19T08:56:55.742Z,-2.17
2023-11-19T08:57:56.128Z,-2.21
2023-11-19T08:58:56.477Z,-2.22
2023-11-19T08:59:56.689Z,-2.26
2023-11-19T09:00:57.309Z,-2.24
2023-11-19T09:01:57.284Z,-2.24
2023-11-19T09:02:57.887Z,-2.24
2023-11-19T09:03:58.107Z,-2.26
2023-11-19T09:04:58.527Z,-2.25
2023-11-19T09:05:58.626Z,-2.31
2023-11-19T09:06:59.552Z,-2.3
2023-11-19T09:07:59.359Z,-2.25
2023-11-19T09:09:00.215Z,-2.24
2023-11-19T09:09:59.936Z,-2.27
2023-11-19T09:11:00.392Z,-2.27
2023-11-19T09:12:00.713Z,-2.28
2023-11-19T09:13:01.013Z,-2.25
2023-11-19T09:14:01.291Z,-2.23
2023-11-19T09:15:01.851Z,-2.16
2023-11-19T09:16:02.076Z,-2.07
2023-11-19T09:17:02.128Z,-2.08
2023-11-19T09:18:03.052Z,-2.11
2023-11-19T09:19:04.433Z,-2.09
2023-11-19T09:20:03.323Z,-2.08
2023-11-19T09:21:03.973Z,-2.03
2023-11-19T09:22:04.047Z,-2.01
2023-11-19T09:23:04.607Z,-2.02
2023-11-19T09:24:05.189Z,-1.98
2023-11-19T09:25:05.635Z,-1.93
2023-11-19T09:26:06.031Z,-1.91
2023-11-19T09:27:06.079Z,-2
2023-11-19T09:28:05.928Z,-2.02
2023-11-19T09:29:06.203Z,-2.04
2023-11-19T09:30:07.718Z,-1.98
2023-11-19T09:31:19.247Z,-2.01
2023-11-19T09:32:11.673Z,-1.96
2023-11-19T09:33:12.109Z,-2.05
2023-11-19T09:34:12.326Z,-2.03
2023-11-19T09:35:12.565Z,-1.96
2023-11-19T09:36:16.176Z,-1.9
2023-11-19T09:38:13.965Z,-1.96
2023-11-19T09:39:14.607Z,-1.93
2023-11-19T09:40:14.813Z,-1.94
2023-11-19T09:41:15.166Z,-1.89
2023-11-19T09:42:15.446Z,-1.89
2023-11-19T09:43:16.790Z,-1.87
2023-11-19T09:44:16.122Z,-1.86
2023-11-19T09:45:18.117Z,-1.92
2023-11-19T09:46:17.776Z,-1.91
2023-11-19T09:47:18.732Z,-1.85
2023-11-19T09:48:20.958Z,-1.91
2023-11-19T09:49:36.102Z,-2.04
2023-11-19T09:50:20.420Z,-2.03
2023-11-19T09:51:19.081Z,-2.04
2023-11-19T09:52:19.606Z,-1.98
2023-11-19T09:53:20.054Z,-2
2023-11-19T09:54:20.231Z,-1.93
2023-11-19T09:55:20.337Z,-1.91
2023-11-19T09:56:21.110Z,-1.9
2023-11-19T09:57:21.218Z,-1.87
2023-11-19T09:58:21.588Z,-1.82
2023-11-19T09:59:22.170Z,-1.75
2023-11-19T10:00:22.790Z,-1.71
2023-11-19T10:01:26.600Z,-1.81
2023-11-19T10:02:30.658Z,-1.85
2023-11-19T10:04:31.600Z,-1.83
2023-11-19T10:05:30.606Z,-1.76
2023-11-19T10:06:30.961Z,-1.79
2023-11-19T10:07:31.478Z,-1.86
2023-11-19T10:08:31.722Z,-1.82
2023-11-19T10:09:32.308Z,-1.81
2023-11-19T10:10:32.111Z,-1.86
2023-11-19T10:11:32.645Z,-1.86
2023-11-19T10:12:32.806Z,-1.88
2023-11-19T10:13:35.973Z,-1.83
2023-11-19T10:14:36.175Z,-1.87
2023-11-19T10:15:37.620Z,-1.84
2023-11-19T10:16:36.183Z,-1.82
2023-11-19T10:17:35.684Z,-1.79
2023-11-19T10:18:35.717Z,-1.74
2023-11-19T10:19:36.473Z,-1.68
2023-11-19T10:21:39.064Z,-1.6
2023-11-19T10:22:39.363Z,-1.68
2023-11-19T10:24:46.658Z,-1.69
2023-11-19T10:25:46.761Z,-1.72
2023-11-19T10:26:47.089Z,-1.73
2023-11-19T10:27:47.479Z,-1.67
2023-11-19T10:28:50.866Z,-1.61
2023-11-19T10:29:49.001Z,-1.59
2023-11-19T10:30:49.460Z,-1.64
2023-11-19T10:31:57.621Z,-1.64
2023-11-19T10:33:50.267Z,-1.67
2023-11-19T10:34:50.652Z,-1.62
2023-11-19T10:36:52.353Z,-1.61
2023-11-19T10:37:52.778Z,-1.56
2023-11-19T10:38:57.594Z,-1.6
2023-11-19T10:39:55.911Z,-1.55
2023-11-19T10:40:55.897Z,-1.51
2023-11-19T10:41:59.116Z,-1.55
2023-11-19T10:43:04.094Z,-1.64
2023-11-19T10:44:01.333Z,-1.73
2023-11-19T10:45:01.940Z,-1.7
2023-11-19T10:47:09.324Z,-1.63
2023-11-19T10:48:08.421Z,-1.61
2023-11-19T10:49:08.416Z,-1.7
2023-11-19T10:50:08.538Z,-1.73
2023-11-19T10:51:08.673Z,-1.68
2023-11-19T10:52:10.277Z,-1.59
2023-11-19T10:53:11.152Z,-1.58
2023-11-19T10:54:10.310Z,-1.51
2023-11-19T10:55:12.343Z,-1.49
2023-11-19T10:56:14.428Z,-1.52
2023-11-19T10:57:17.834Z,-1.61
2023-11-19T10:58:17.378Z,-1.59
2023-11-19T11:00:20.679Z,-1.61
2023-11-19T11:01:20.881Z,-1.55
2023-11-19T11:02:23.048Z,-1.52
2023-11-19T11:03:21.817Z,-1.51
2023-11-19T11:04:25.224Z,-1.62
2023-11-19T11:05:25.445Z,-1.66
2023-11-19T11:06:23.624Z,-1.63
2023-11-19T11:07:29.963Z,-1.54
2023-11-19T11:08:24.116Z,-1.52
2023-11-19T11:09:24.730Z,-1.52
2023-11-19T11:10:27.419Z,-1.49
2023-11-19T11:11:27.312Z,-1.46
2023-11-19T11:12:26.427Z,-1.43
2023-11-19T11:13:27.303Z,-1.48
2023-11-19T11:14:28.032Z,-1.4
2023-11-19T11:15:30.022Z,-1.42
2023-11-19T11:16:28.456Z,-1.42
2023-11-19T11:17:32.620Z,-1.32
2023-11-19T11:18:30.152Z,-1.28
2023-11-19T11:19:30.752Z,-1.37
2023-11-19T11:20:35.601Z,-1.41
2023-11-19T11:21:33.821Z,-1.4
2023-11-19T11:38:23.388Z,-1.45
2023-11-19T11:39:23.760Z,-1.48
2023-11-19T11:40:21.220Z,-1.47
2023-11-19T11:41:24.321Z,-1.51
2023-11-19T11:48:36.374Z,-1.36
2023-11-19T11:49:36.475Z,-1.4
2023-11-19T11:50:48.135Z,-1.51
2023-11-19T11:53:48.365Z,-1.54
2023-11-19T11:54:46.064Z,-1.58
2023-11-19T11:57:48.934Z,-1.53
2023-11-19T11:58:48.539Z,-1.51
2023-11-19T11:59:50.249Z,-1.46
2023-11-19T12:00:50.147Z,-1.48
2023-11-19T12:02:55.481Z,-1.62
2023-11-19T12:03:57.091Z,-1.67
2023-11-19T12:04:54.909Z,-1.68
2023-11-19T12:05:55.020Z,-1.7
2023-11-19T12:08:05.809Z,-1.58
2023-11-19T12:09:03.890Z,-1.56
2023-11-19T12:10:10.726Z,-1.49
2023-11-19T12:11:08.351Z,-1.49
2023-11-19T12:13:11.028Z,-1.5
2023-11-19T12:14:11.293Z,-1.51
2023-11-19T12:15:11.886Z,-1.52
2023-11-19T12:16:12.467Z,-1.54
2023-11-19T12:18:20.518Z,-1.61
2023-11-19T12:19:19.410Z,-1.6
2023-11-19T12:20:34.532Z,-1.61
2023-11-19T12:21:34.326Z,-1.57
2023-11-19T12:22:27.062Z,-1.47
2023-11-19T12:23:29.630Z,-1.45
2023-11-19T12:24:28.306Z,-1.55
2023-11-19T12:25:28.216Z,-1.57
2023-11-19T12:26:40.917Z,-1.62
2023-11-19T12:27:29.477Z,-1.6
2023-11-19T12:28:28.440Z,-1.54
2023-11-19T12:29:29.063Z,-1.52
2023-11-19T12:30:29.093Z,-1.52
2023-11-19T12:31:29.679Z,-1.5
2023-11-19T12:33:32.324Z,-1.58
2023-11-19T12:34:30.581Z,-1.58
2023-11-19T12:35:30.941Z,-1.6
2023-11-19T12:36:31.372Z,-1.57
2023-11-19T12:37:31.666Z,-1.57
2023-11-19T12:38:31.877Z,-1.61
2023-11-19T12:39:32.684Z,-1.62
2023-11-19T12:40:32.852Z,-1.6
2023-11-19T12:41:32.936Z,-1.62
2023-11-19T12:42:39.014Z,-1.59
2023-11-19T12:43:51.250Z,-1.61
2023-11-19T12:44:39.138Z,-1.65
2023-11-19T12:45:39.313Z,-1.67
2023-11-19T12:46:39.836Z,-1.63
2023-11-19T12:47:41.097Z,-1.6
2023-11-19T12:48:42.996Z,-1.57
2023-11-19T12:49:40.747Z,-1.6
2023-11-19T12:50:54.185Z,-1.59
2023-11-19T12:51:41.725Z,-1.6
2023-11-19T12:52:42.110Z,-1.59
2023-11-19T12:53:54.233Z,-1.59
2023-11-19T12:54:46.699Z,-1.57
2023-11-19T12:55:47.154Z,-1.59
2023-11-19T12:56:54.278Z,-1.66
2023-11-19T12:57:51.676Z,-1.64
2023-11-19T12:58:52.097Z,-1.64
2023-11-19T12:59:58.444Z,-1.64
2023-11-19T13:01:01.160Z,-1.57
2023-11-19T13:01:59.409Z,-1.59
2023-11-19T13:03:00.131Z,-1.57
2023-11-19T13:03:59.506Z,-1.57
2023-11-19T13:05:00.007Z,-1.6
2023-11-19T13:06:04.544Z,-1.56
2023-11-19T13:07:06.148Z,-1.58
2023-11-19T13:08:09.503Z,-1.59
2023-11-19T13:09:06.888Z,-1.61
2023-11-19T13:10:08.054Z,-1.61
2023-11-19T13:11:08.233Z,-1.63
2023-11-19T13:12:16.023Z,-1.62
2023-11-19T13:13:09.879Z,-1.64
2023-11-19T13:14:08.873Z,-1.65
2023-11-19T13:16:10.703Z,-1.65
2023-11-19T13:17:14.680Z,-1.67
2023-11-19T13:18:12.726Z,-1.67
2023-11-19T13:19:12.491Z,-1.67
2023-11-19T13:20:13.009Z,-1.72
2023-11-19T13:21:13.116Z,-1.76
2023-11-19T13:22:13.434Z,-1.74
2023-11-19T13:23:13.952Z,-1.74
2023-11-19T13:24:14.752Z,-1.77
2023-11-19T13:25:14.490Z,-1.79
2023-11-19T13:26:15.374Z,-1.78
2023-11-19T13:27:15.299Z,-1.78
2023-11-19T13:28:15.478Z,-1.8
2023-11-19T13:29:15.831Z,-1.84
2023-11-19T13:31:18.146Z,-1.82
2023-11-19T13:32:18.262Z,-1.82
2023-11-19T13:33:18.680Z,-1.83
2023-11-19T13:34:18.898Z,-1.86
2023-11-19T13:35:20.143Z,-1.87
2023-11-19T13:36:19.631Z,-1.89
2023-11-19T13:37:19.977Z,-1.86
2023-11-19T13:38:20.306Z,-1.87
2023-11-19T13:39:20.613Z,-1.84
2023-11-19T13:40:21.048Z,-1.83
2023-11-19T13:41:21.762Z,-1.81
2023-11-19T13:42:21.540Z,-1.83
2023-11-19T13:43:24.164Z,-1.83
2023-11-19T13:44:22.701Z,-1.82
2023-11-19T13:45:23.223Z,-1.82
2023-11-19T13:46:23.433Z,-1.84
2023-11-19T13:47:23.843Z,-1.89
2023-11-19T13:48:24.050Z,-1.88
2023-11-19T13:49:25.251Z,-1.83
2023-11-19T13:50:24.676Z,-1.82
2023-11-19T13:51:25.094Z,-1.87
2023-11-19T13:52:25.307Z,-1.88
2023-11-19T13:53:25.602Z,-1.86
2023-11-19T13:54:26.035Z,-1.84
2023-11-19T13:55:26.764Z,-1.87